createdAt,value
2023-03-11T00:00:24.207Z,99.90
2023-03-11T00:02:53.180Z,99.90
2023-03-11T00:05:28.359Z,99.90
2023-03-11T00:07:55.727Z,99.90
2023-03-11T00:10:31.558Z,99.90
2023-03-11T00:12:59.564Z,99.90
2023-03-11T00:15:28.091Z,99.90
2023-03-11T00:17:57.430Z,99.90
2023-03-11T00:20:30.960Z,99.90
2023-03-11T00:22:58.213Z,99.90
2023-03-11T00:25:27.618Z,99.90
2023-03-11T00:27:54.524Z,99.90
2023-03-11T00:30:22.921Z,99.90
2023-03-11T00:32:51.751Z,99.90
2023-03-11T00:35:25.921Z,99.90
2023-03-11T00:37:55.915Z,99.90
2023-03-11T00:40:25.007Z,99.90
2023-03-11T00:42:51.885Z,99.90
2023-03-11T00:45:19.078Z,99.90
2023-03-11T00:47:45.878Z,99.90
2023-03-11T00:50:19.045Z,99.90
2023-03-11T00:52:47.312Z,99.90
2023-03-11T00:55:26.752Z,99.90
2023-03-11T00:58:00.024Z,99.90
2023-03-11T01:00:28.732Z,99.90
2023-03-11T01:02:55.839Z,99.90
2023-03-11T01:05:28.618Z,99.90
2023-03-11T01:07:55.277Z,99.90
2023-03-11T01:10:22.023Z,99.90
2023-03-11T01:12:48.840Z,99.90
2023-03-11T01:15:23.896Z,99.90
2023-03-11T01:17:50.755Z,99.90
2023-03-11T01:20:17.749Z,99.90
2023-03-11T01:22:44.766Z,99.90
2023-03-11T01:25:17.700Z,99.90
2023-03-11T01:27:44.686Z,99.90
2023-03-11T01:30:16.491Z,99.90
2023-03-11T01:32:43.681Z,99.90
2023-03-11T01:35:15.597Z,99.90
2023-03-11T01:37:42.674Z,99.90
2023-03-11T01:40:41.109Z,99.90
2023-03-11T01:43:43.095Z,99.90
2023-03-11T01:46:21.301Z,99.90
2023-03-11T01:48:53.999Z,99.90
2023-03-11T01:51:39.547Z,99.90
2023-03-11T01:54:15.089Z,99.90
2023-03-11T01:56:42.998Z,99.90
2023-03-11T01:59:13.504Z,99.90
2023-03-11T02:01:52.515Z,99.90
2023-03-11T02:04:21.265Z,99.90
2023-03-11T02:06:48.180Z,99.90
2023-03-11T02:09:14.857Z,99.90
2023-03-11T02:11:41.808Z,99.90
2023-03-11T02:14:09.492Z,99.90
2023-03-11T02:16:37.037Z,99.90
2023-03-11T02:19:45.114Z,99.90
2023-03-11T02:22:12.916Z,99.90
2023-03-11T02:24:55.000Z,99.20
2023-03-11T02:27:23.593Z,99.00
2023-03-11T02:29:51.688Z,98.60
2023-03-11T02:32:19.279Z,99.90
2023-03-11T02:34:46.412Z,98.40
2023-03-11T02:37:15.634Z,98.80
2023-03-11T02:39:44.925Z,98.70
2023-03-11T02:42:30.888Z,98.50
2023-03-11T02:45:10.965Z,98.60
2023-03-11T02:47:40.300Z,98.50
2023-03-11T02:50:10.013Z,98.30
2023-03-11T02:52:37.102Z,98.50
2023-03-11T02:55:08.258Z,98.10
2023-03-11T02:57:34.925Z,98.30
2023-03-11T03:00:08.685Z,98.00
2023-03-11T03:02:35.486Z,98.10
2023-03-11T03:05:03.220Z,98.40
2023-03-11T03:07:30.084Z,98.40
2023-03-11T03:09:56.804Z,98.30
2023-03-11T03:12:23.515Z,98.00
2023-03-11T03:14:50.258Z,98.20
2023-03-11T03:17:17.518Z,98.30
2023-03-11T03:19:44.445Z,98.20
2023-03-11T03:22:11.293Z,98.30
2023-03-11T03:24:38.008Z,98.10
2023-03-11T03:27:05.189Z,98.30
2023-03-11T03:29:31.869Z,98.40
2023-03-11T03:31:58.606Z,98.20
2023-03-11T03:34:25.405Z,98.50
2023-03-11T03:36:52.387Z,98.80
2023-03-11T03:39:19.994Z,98.70
2023-03-11T03:41:46.726Z,98.60
2023-03-11T03:44:13.488Z,98.70
2023-03-11T03:46:40.514Z,98.60
2023-03-11T03:49:07.176Z,98.90
2023-03-11T03:51:34.520Z,99.20
2023-03-11T03:54:01.270Z,99.10
2023-03-11T03:56:27.976Z,99.20
2023-03-11T03:58:54.725Z,99.40
2023-03-11T04:01:21.759Z,99.50
2023-03-11T04:03:48.524Z,99.70
2023-03-11T04:06:17.177Z,99.90
2023-03-11T04:08:43.856Z,99.90
2023-03-11T04:11:10.978Z,99.90
2023-03-11T04:13:37.990Z,99.90
2023-03-11T04:16:06.459Z,99.90
2023-03-11T04:18:34.154Z,99.90
2023-03-11T04:21:04.530Z,99.90
2023-03-11T04:23:31.356Z,99.90
2023-03-11T04:25:58.091Z,99.90
2023-03-11T04:28:24.931Z,99.90
2023-03-11T04:30:51.673Z,99.90
2023-03-11T04:33:18.449Z,99.90
2023-03-11T04:35:45.175Z,99.90
2023-03-11T04:38:12.100Z,99.90
2023-03-11T04:40:39.354Z,99.90
2023-03-11T04:43:06.504Z,99.90
2023-03-11T04:45:33.544Z,99.90
2023-03-11T04:48:00.274Z,99.90
2023-03-11T04:50:27.017Z,99.90
2023-03-11T04:52:53.678Z,99.90
2023-03-11T04:55:20.374Z,99.90
2023-03-11T04:57:47.165Z,99.90
2023-03-11T05:00:16.226Z,99.90
2023-03-11T05:02:43.265Z,99.90
2023-03-11T05:05:10.555Z,99.90
2023-03-11T05:07:37.604Z,99.90
2023-03-11T05:10:05.399Z,99.90
2023-03-11T05:12:32.678Z,99.90
2023-03-11T05:14:59.330Z,99.90
2023-03-11T05:17:26.265Z,99.90
2023-03-11T05:19:56.314Z,99.90
2023-03-11T05:22:23.105Z,99.90
2023-03-11T05:24:49.859Z,99.90
2023-03-11T05:27:18.081Z,99.90
2023-03-11T05:29:45.292Z,99.90
2023-03-11T05:32:13.310Z,99.90
2023-03-11T05:34:40.231Z,99.90
2023-03-11T05:37:07.710Z,99.90
2023-03-11T05:39:34.941Z,99.90
2023-03-11T05:42:01.661Z,99.90
2023-03-11T05:44:28.384Z,99.90
2023-03-11T05:46:55.377Z,99.90
2023-03-11T05:49:22.241Z,99.90
2023-03-11T05:51:50.495Z,99.90
2023-03-11T05:54:17.770Z,99.90
2023-03-11T05:56:45.687Z,99.90
2023-03-11T05:59:16.274Z,99.90
2023-03-11T06:01:44.398Z,99.90
2023-03-11T06:04:11.924Z,99.90
2023-03-11T06:06:43.507Z,99.90
2023-03-11T06:09:14.425Z,99.90
2023-03-11T06:11:41.775Z,99.90
2023-03-11T06:14:13.590Z,99.90
2023-03-11T06:16:41.648Z,99.90
2023-03-11T06:19:08.601Z,99.90
2023-03-11T06:21:35.601Z,99.90
2023-03-11T06:24:02.287Z,99.90
2023-03-11T06:26:29.340Z,99.90
2023-03-11T06:28:56.007Z,99.90
2023-03-11T06:31:28.564Z,99.90
2023-03-11T06:33:59.342Z,99.90
2023-03-11T06:36:26.564Z,99.90
2023-03-11T06:38:54.487Z,99.90
2023-03-11T06:41:21.563Z,99.90
2023-03-11T06:43:48.518Z,99.90
2023-03-11T06:46:21.646Z,99.90
2023-03-11T06:48:52.231Z,99.90
2023-03-11T06:51:20.571Z,99.90
2023-03-11T06:53:52.386Z,99.90
2023-03-11T06:56:20.736Z,99.90
2023-03-11T06:58:48.125Z,99.90
2023-03-11T07:01:17.579Z,99.90
2023-03-11T07:03:46.636Z,99.90
2023-03-11T07:06:15.383Z,99.90
2023-03-11T07:08:42.166Z,99.90
2023-03-11T07:11:14.678Z,99.90
2023-03-11T07:13:41.607Z,99.90
2023-03-11T07:16:12.248Z,99.90
2023-03-11T07:18:39.041Z,99.90
2023-03-11T07:21:08.650Z,99.90
2023-03-11T07:23:36.038Z,99.90
2023-03-11T07:26:03.132Z,99.90
2023-03-11T07:28:30.083Z,99.70
2023-03-11T07:30:56.980Z,99.90
2023-03-11T07:33:24.534Z,99.90
2023-03-11T07:35:52.217Z,99.90
2023-03-11T07:38:19.831Z,99.80
2023-03-11T07:40:46.693Z,99.70
2023-03-11T07:43:13.559Z,99.70
2023-03-11T07:45:40.313Z,99.60
2023-03-11T07:48:07.123Z,99.90
2023-03-11T07:50:34.994Z,99.60
2023-03-11T07:53:01.718Z,99.90
2023-03-11T07:55:28.528Z,99.90
2023-03-11T07:57:55.415Z,99.90
2023-03-11T08:00:22.367Z,99.80
2023-03-11T08:02:49.222Z,99.60
2023-03-11T08:05:16.100Z,99.50
2023-03-11T08:07:43.129Z,99.60
2023-03-11T08:10:10.975Z,99.40
2023-03-11T08:12:37.722Z,99.60
2023-03-11T08:15:05.113Z,99.40
2023-03-11T08:17:31.834Z,99.20
2023-03-11T08:19:58.760Z,99.20
2023-03-11T08:22:25.537Z,99.20
2023-03-11T08:24:53.053Z,99.30
2023-03-11T08:27:19.905Z,99.60
2023-03-11T08:29:47.185Z,99.20
2023-03-11T08:32:14.020Z,99.30
2023-03-11T08:34:40.864Z,99.10
2023-03-11T08:37:07.698Z,99.10
2023-03-11T08:39:34.479Z,98.80
2023-03-11T08:42:01.562Z,98.80
2023-03-11T08:44:28.388Z,98.90
2023-03-11T08:46:55.426Z,99.00
2023-03-11T08:49:22.135Z,99.00
2023-03-11T08:51:48.887Z,99.30
2023-03-11T08:54:15.698Z,99.80
2023-03-11T08:56:42.443Z,98.80
2023-03-11T08:59:09.283Z,99.00
2023-03-11T09:01:36.349Z,98.50
2023-03-11T09:04:03.193Z,98.60
2023-03-11T09:06:30.583Z,98.50
2023-03-11T09:08:57.598Z,98.60
2023-03-11T09:11:24.905Z,99.10
2023-03-11T09:13:51.720Z,98.90
2023-03-11T09:16:22.215Z,98.60
2023-03-11T09:18:49.627Z,98.40
2023-03-11T09:21:16.391Z,98.60
2023-03-11T09:23:44.494Z,98.50
2023-03-11T09:26:11.885Z,98.40
2023-03-11T09:28:38.706Z,98.00
2023-03-11T09:31:05.566Z,97.60
2023-03-11T09:33:35.974Z,97.80
2023-03-11T09:36:02.779Z,97.90
2023-03-11T09:38:29.529Z,98.30
2023-03-11T09:41:28.087Z,98.20
2023-03-11T09:44:16.032Z,97.60
2023-03-11T09:47:07.732Z,97.30
2023-03-11T09:49:34.457Z,97.50
2023-03-11T09:52:15.859Z,97.50
2023-03-11T09:54:50.416Z,97.60
2023-03-11T09:57:28.208Z,96.60
2023-03-11T09:59:56.036Z,96.60
2023-03-11T10:02:28.008Z,96.70
2023-03-11T10:05:03.372Z,96.50
2023-03-11T10:07:47.133Z,96.60
2023-03-11T10:10:15.199Z,96.40
2023-03-11T10:13:10.497Z,96.50
2023-03-11T10:15:56.613Z,96.50
2023-03-11T10:18:47.700Z,96.60
2023-03-11T10:21:39.233Z,96.80
2023-03-11T10:24:48.157Z,97.20
2023-03-11T10:27:20.804Z,97.40
2023-03-11T10:30:04.728Z,97.50
2023-03-11T10:32:41.225Z,97.80
2023-03-11T10:35:16.736Z,97.40
2023-03-11T10:37:56.955Z,97.40
2023-03-11T10:40:36.979Z,97.40
2023-03-11T10:43:11.335Z,97.00
2023-03-11T10:45:41.576Z,97.00
2023-03-11T10:48:13.658Z,97.10
2023-03-11T10:51:02.449Z,97.00
2023-03-11T10:53:30.645Z,96.90
2023-03-11T10:55:59.750Z,97.00
2023-03-11T10:58:29.246Z,97.00
2023-03-11T11:01:15.691Z,97.20
2023-03-11T11:03:50.192Z,97.20
2023-03-11T11:06:35.451Z,97.20
2023-03-11T11:09:20.977Z,97.80
2023-03-11T11:12:11.800Z,97.50
2023-03-11T11:14:50.642Z,97.30
2023-03-11T11:17:20.490Z,96.70
2023-03-11T11:19:48.608Z,96.70
2023-03-11T11:22:22.096Z,96.30
2023-03-11T11:24:51.442Z,96.40
2023-03-11T11:27:24.499Z,96.40
2023-03-11T11:30:16.566Z,96.50
2023-03-11T11:32:43.486Z,96.40
2023-03-11T11:35:19.983Z,96.60
2023-03-11T11:38:01.433Z,96.30
2023-03-11T11:40:31.252Z,95.80
2023-03-11T11:43:14.062Z,94.90
2023-03-11T11:45:46.985Z,94.90
2023-03-11T11:48:41.684Z,94.60
2023-03-11T11:51:44.649Z,94.80
2023-03-11T11:54:24.448Z,93.40
2023-03-11T11:56:51.291Z,93.60
2023-03-11T11:59:23.057Z,94.70
2023-03-11T12:02:06.669Z,95.00
2023-03-11T12:04:54.808Z,95.10
2023-03-11T12:07:43.102Z,94.60
2023-03-11T12:10:33.348Z,94.10
2023-03-11T12:13:21.909Z,94.40
2023-03-11T12:16:17.021Z,94.60
2023-03-11T12:19:01.280Z,94.40
2023-03-11T12:21:46.015Z,94.40
2023-03-11T12:24:41.840Z,94.00
2023-03-11T12:27:40.715Z,93.40
2023-03-11T12:30:36.796Z,93.60
2023-03-11T12:33:06.466Z,93.50
2023-03-11T12:35:35.794Z,93.80
2023-03-11T12:38:21.018Z,93.90
2023-03-11T12:41:05.801Z,93.90
2023-03-11T12:43:35.461Z,93.50
2023-03-11T12:46:06.273Z,93.50
2023-03-11T12:48:34.007Z,93.70
2023-03-11T12:51:01.102Z,94.00
2023-03-11T12:53:44.980Z,93.90
2023-03-11T12:56:36.109Z,94.10
2023-03-11T12:59:21.521Z,94.20
2023-03-11T13:02:03.522Z,94.20
2023-03-11T13:05:12.722Z,94.10
2023-03-11T13:07:51.617Z,93.80
2023-03-11T13:10:20.589Z,93.40
2023-03-11T13:12:52.262Z,93.50
2023-03-11T13:15:19.850Z,93.50
2023-03-11T13:18:33.019Z,92.70
2023-03-11T13:21:01.716Z,92.70
2023-03-11T13:23:40.575Z,92.60
2023-03-11T13:26:07.246Z,93.20
2023-03-11T13:28:52.523Z,92.70
2023-03-11T13:31:38.432Z,92.50
2023-03-11T13:34:14.346Z,92.30
2023-03-11T13:36:46.901Z,92.60
2023-03-11T13:39:29.986Z,92.50
2023-03-11T13:41:57.092Z,92.60
2023-03-11T13:44:36.708Z,92.90
2023-03-11T13:47:13.737Z,92.50
2023-03-11T13:49:51.624Z,92.80
2023-03-11T13:52:35.883Z,92.10
2023-03-11T13:55:15.651Z,92.40
2023-03-11T13:57:50.877Z,92.50
2023-03-11T14:00:25.155Z,92.60
2023-03-11T14:02:55.449Z,92.60
2023-03-11T14:05:36.384Z,92.10
2023-03-11T14:08:16.283Z,92.10
2023-03-11T14:10:56.745Z,92.40
2023-03-11T14:13:24.980Z,92.30
2023-03-11T14:16:02.156Z,92.00
2023-03-11T14:18:35.359Z,91.60
2023-03-11T14:21:05.199Z,91.30
2023-03-11T14:23:42.753Z,91.10
2023-03-11T14:26:18.762Z,91.30
2023-03-11T14:28:54.869Z,91.80
2023-03-11T14:31:36.043Z,91.40
2023-03-11T14:34:13.309Z,90.60
2023-03-11T14:36:49.617Z,90.60
2023-03-11T14:39:31.596Z,91.00
2023-03-11T14:42:06.304Z,91.00
2023-03-11T14:44:37.778Z,90.70
2023-03-11T14:47:34.970Z,90.90
2023-03-11T14:50:04.550Z,90.50
2023-03-11T14:52:35.479Z,90.00
2023-03-11T14:55:04.945Z,88.10
2023-03-11T14:57:43.019Z,86.10
2023-03-11T15:00:18.958Z,86.30
2023-03-11T15:03:12.883Z,86.30
2023-03-11T15:05:45.466Z,85.00
2023-03-11T15:08:12.766Z,86.00
2023-03-11T15:10:39.640Z,87.10
2023-03-11T15:13:16.316Z,87.80
2023-03-11T15:15:43.133Z,88.40
2023-03-11T15:18:32.024Z,89.10
2023-03-11T15:21:15.476Z,89.70
2023-03-11T15:23:55.614Z,90.20
2023-03-11T15:26:29.875Z,90.00
2023-03-11T15:29:12.237Z,90.10
2023-03-11T15:31:40.541Z,90.30
2023-03-11T15:34:10.386Z,90.10
2023-03-11T15:36:43.829Z,90.30
2023-03-11T15:39:31.804Z,90.10
2023-03-11T15:42:07.772Z,89.80
2023-03-11T15:44:58.981Z,90.20
2023-03-11T15:47:25.767Z,90.20
2023-03-11T15:49:52.642Z,90.10
2023-03-11T15:52:19.574Z,90.40
2023-03-11T15:54:55.168Z,90.40
2023-03-11T15:57:28.335Z,90.60
2023-03-11T15:59:58.324Z,90.80
2023-03-11T16:02:28.079Z,90.70
2023-03-11T16:04:55.290Z,90.60
2023-03-11T16:07:38.126Z,90.80
2023-03-11T16:10:08.147Z,91.00
2023-03-11T16:12:35.035Z,91.80
2023-03-11T16:15:02.113Z,91.80
2023-03-11T16:17:42.936Z,91.80
2023-03-11T16:20:14.132Z,91.50
2023-03-11T16:22:41.067Z,91.40
2023-03-11T16:25:18.004Z,91.60
2023-03-11T16:27:44.879Z,91.60
2023-03-11T16:30:16.026Z,91.80
2023-03-11T16:32:43.674Z,91.90
2023-03-11T16:35:11.996Z,92.10
2023-03-11T16:37:39.784Z,91.70
2023-03-11T16:40:07.265Z,91.70
2023-03-11T16:42:33.982Z,91.70
2023-03-11T16:45:02.780Z,91.40
2023-03-11T16:47:30.526Z,91.20
2023-03-11T16:49:57.320Z,91.20
2023-03-11T16:52:24.120Z,91.40
2023-03-11T16:54:50.950Z,91.60
2023-03-11T16:57:17.787Z,91.60
2023-03-11T16:59:44.856Z,91.70
2023-03-11T17:02:12.520Z,92.00
2023-03-11T17:04:39.550Z,91.90
2023-03-11T17:07:07.247Z,91.90
2023-03-11T17:09:35.518Z,92.00
2023-03-11T17:12:03.136Z,92.20
2023-03-11T17:14:30.404Z,92.30
2023-03-11T17:16:57.132Z,92.20
2023-03-11T17:19:24.650Z,92.10
2023-03-11T17:21:51.840Z,92.20
2023-03-11T17:24:18.607Z,92.20
2023-03-11T17:26:45.432Z,92.40
2023-03-11T17:29:12.184Z,92.60
2023-03-11T17:31:38.959Z,92.90
2023-03-11T17:34:05.716Z,93.00
2023-03-11T17:36:32.404Z,92.90
2023-03-11T17:38:59.075Z,93.20
2023-03-11T17:41:25.916Z,93.10
2023-03-11T17:43:52.681Z,93.50
2023-03-11T17:46:20.634Z,93.70
2023-03-11T17:48:48.767Z,93.90
2023-03-11T17:51:18.412Z,93.80
2023-03-11T17:53:46.518Z,93.90
2023-03-11T17:56:15.092Z,93.70
2023-03-11T17:58:42.071Z,93.70
2023-03-11T18:01:17.315Z,93.80
2023-03-11T18:03:44.117Z,93.70
2023-03-11T18:06:11.374Z,93.60
2023-03-11T18:08:38.312Z,93.60
2023-03-11T18:11:11.100Z,93.80
2023-03-11T18:13:38.790Z,93.60
2023-03-11T18:16:13.993Z,93.70
2023-03-11T18:18:41.509Z,93.90
2023-03-11T18:21:12.396Z,94.00
2023-03-11T18:23:39.693Z,94.10
2023-03-11T18:26:07.743Z,94.20
2023-03-11T18:28:35.409Z,94.20
2023-03-11T18:31:13.991Z,94.20
2023-03-11T18:33:42.195Z,94.30
2023-03-11T18:36:23.827Z,94.30
2023-03-11T18:38:52.501Z,94.10
2023-03-11T18:41:20.132Z,94.00
2023-03-11T18:43:47.501Z,94.20
2023-03-11T18:46:16.051Z,94.40
2023-03-11T18:48:43.163Z,94.40
2023-03-11T18:51:11.106Z,94.50
2023-03-11T18:53:37.806Z,94.70
2023-03-11T18:56:07.093Z,94.90
2023-03-11T18:58:34.230Z,95.00
2023-03-11T19:01:12.506Z,95.10
2023-03-11T19:03:39.869Z,95.50
2023-03-11T19:06:11.672Z,95.30
2023-03-11T19:08:38.655Z,95.50
2023-03-11T19:11:17.075Z,95.70
2023-03-11T19:13:47.969Z,95.80
2023-03-11T19:16:17.584Z,95.80
2023-03-11T19:18:44.383Z,96.00
2023-03-11T19:21:13.512Z,96.10
2023-03-11T19:23:40.175Z,96.30
2023-03-11T19:26:07.201Z,96.50
2023-03-11T19:28:34.264Z,96.60
2023-03-11T19:31:01.273Z,96.70
2023-03-11T19:33:28.223Z,96.70
2023-03-11T19:36:00.758Z,96.60
2023-03-11T19:38:28.634Z,96.80
2023-03-11T19:41:14.508Z,96.70
2023-03-11T19:43:41.779Z,96.80
2023-03-11T19:46:10.968Z,96.80
2023-03-11T19:48:37.700Z,96.70
2023-03-11T19:51:05.914Z,96.90
2023-03-11T19:53:33.201Z,97.00
2023-03-11T19:56:00.263Z,97.20
2023-03-11T19:58:30.531Z,97.20
2023-03-11T20:00:59.291Z,97.40
2023-03-11T20:03:26.627Z,97.30
2023-03-11T20:05:56.533Z,97.40
2023-03-11T20:08:24.507Z,97.60
2023-03-11T20:10:52.870Z,97.70
2023-03-11T20:13:21.371Z,97.80
2023-03-11T20:15:48.327Z,97.60
2023-03-11T20:18:15.596Z,97.80
2023-03-11T20:20:43.265Z,98.00
2023-03-11T20:23:11.402Z,98.10
2023-03-11T20:25:39.722Z,97.90
2023-03-11T20:28:08.092Z,98.00
2023-03-11T20:30:34.868Z,98.00
2023-03-11T20:33:01.704Z,98.10
2023-03-11T20:35:28.683Z,98.00
2023-03-11T20:37:55.371Z,98.10
2023-03-11T20:40:22.370Z,98.20
2023-03-11T20:42:49.336Z,98.30
2023-03-11T20:45:21.606Z,98.30
2023-03-11T20:47:49.696Z,98.00
2023-03-11T20:50:17.136Z,98.10
2023-03-11T20:52:44.073Z,98.20
2023-03-11T20:55:11.442Z,98.30
2023-03-11T20:57:39.231Z,98.40
2023-03-11T21:00:11.438Z,98.40
2023-03-11T21:02:40.074Z,98.50
2023-03-11T21:05:08.979Z,98.60
2023-03-11T21:07:36.207Z,98.50
2023-03-11T21:10:05.613Z,98.50
2023-03-11T21:12:32.393Z,98.60
2023-03-11T21:14:59.163Z,98.60
2023-03-11T21:17:26.067Z,98.60
2023-03-11T21:19:52.833Z,98.60
2023-03-11T21:22:19.636Z,98.60
2023-03-11T21:24:50.385Z,98.40
2023-03-11T21:27:17.112Z,98.30
2023-03-11T21:29:43.915Z,98.40
2023-03-11T21:32:10.884Z,98.30
2023-03-11T21:34:37.600Z,98.40
2023-03-11T21:37:04.366Z,98.50
2023-03-11T21:39:31.226Z,98.60
2023-03-11T21:41:58.072Z,98.80
2023-03-11T21:44:24.926Z,99.00
2023-03-11T21:46:51.693Z,99.00
2023-03-11T21:49:18.707Z,99.00
2023-03-11T21:51:45.763Z,98.90
2023-03-11T21:54:13.102Z,98.90
2023-03-11T21:56:40.096Z,98.90
2023-03-11T21:59:07.692Z,99.40
2023-03-11T22:01:35.299Z,98.80
2023-03-11T22:04:02.655Z,98.70
2023-03-11T22:06:31.162Z,98.80
2023-03-11T22:08:58.019Z,98.90
2023-03-11T22:11:25.214Z,98.80
2023-03-11T22:13:54.073Z,98.90
2023-03-11T22:16:22.434Z,98.90
2023-03-11T22:18:49.731Z,99.20
2023-03-11T22:21:18.282Z,99.30
2023-03-11T22:23:45.402Z,99.40
2023-03-11T22:26:12.707Z,99.40
2023-03-11T22:28:39.569Z,99.50
2023-03-11T22:31:11.859Z,99.50
2023-03-11T22:33:38.798Z,99.50
2023-03-11T22:36:07.710Z,99.60
2023-03-11T22:38:35.542Z,99.60
2023-03-11T22:41:05.031Z,99.90
2023-03-11T22:43:31.998Z,99.60
2023-03-11T22:46:00.486Z,99.60
2023-03-11T22:48:29.165Z,99.50
2023-03-11T22:50:56.158Z,99.60
2023-03-11T22:53:24.805Z,99.50
2023-03-11T22:55:52.236Z,99.50
2023-03-11T22:58:19.018Z,99.50
2023-03-11T23:00:45.788Z,99.60
2023-03-11T23:03:12.639Z,99.50
2023-03-11T23:05:42.164Z,99.50
2023-03-11T23:08:15.474Z,99.60
2023-03-11T23:10:44.137Z,99.60
2023-03-11T23:13:11.697Z,99.50
2023-03-11T23:15:41.432Z,99.50
2023-03-11T23:18:08.292Z,99.90
2023-03-11T23:20:39.951Z,99.50
2023-03-11T23:23:07.378Z,99.60
2023-03-11T23:25:35.197Z,99.80
2023-03-11T23:28:04.063Z,99.60
2023-03-11T23:30:31.621Z,99.70
2023-03-11T23:32:59.309Z,99.70
2023-03-11T23:35:26.157Z,99.70
2023-03-11T23:37:52.949Z,99.60
2023-03-11T23:40:19.760Z,99.80
2023-03-11T23:42:46.603Z,99.80
2023-03-11T23:45:13.276Z,99.90
2023-03-11T23:47:40.005Z,99.90
2023-03-11T23:50:07.197Z,99.90
2023-03-11T23:52:34.821Z,99.90
2023-03-11T23:55:01.662Z,99.80
2023-03-11T23:57:28.383Z,99.80
2023-03-11T23:59:55.132Z,99.90
